createdAt,value
2018-09-23T00:01:01.183Z,11.49
2018-09-23T00:03:29.716Z,11.49
2018-09-23T00:05:58.260Z,11.50
2018-09-23T00:08:26.795Z,11.48
2018-09-23T00:10:57.261Z,11.48
2018-09-23T00:13:26.709Z,11.51
2018-09-23T00:15:55.244Z,11.50
2018-09-23T00:18:23.780Z,11.55
2018-09-23T00:20:52.324Z,11.52
2018-09-23T00:23:20.852Z,11.53
2018-09-23T00:25:49.387Z,11.54
2018-09-23T00:28:17.924Z,11.60
2018-09-23T00:30:46.463Z,11.58
2018-09-23T00:33:14.979Z,11.54
2018-09-23T00:35:43.667Z,11.54
2018-09-23T00:38:12.188Z,11.51
2018-09-23T00:40:40.912Z,11.47
2018-09-23T00:43:09.422Z,11.50
2018-09-23T00:45:37.944Z,11.49
2018-09-23T00:48:07.420Z,11.51
2018-09-23T00:50:35.946Z,11.47
2018-09-23T00:53:04.494Z,11.52
2018-09-23T00:55:33.007Z,11.54
2018-09-23T00:58:01.534Z,11.51
2018-09-23T01:00:30.087Z,11.53
2018-09-23T01:03:03.165Z,11.49
2018-09-23T01:05:31.682Z,11.54
2018-09-23T01:08:00.230Z,11.57
2018-09-23T01:10:28.758Z,11.58
2018-09-23T01:12:57.569Z,11.59
2018-09-23T01:15:26.075Z,11.59
2018-09-23T01:17:54.608Z,11.59
2018-09-23T01:20:23.149Z,11.60
2018-09-23T01:22:51.742Z,11.62
2018-09-23T01:25:20.263Z,11.70
2018-09-23T01:27:48.796Z,11.72
2018-09-23T01:30:17.326Z,11.68
2018-09-23T01:32:45.904Z,11.73
2018-09-23T01:35:14.416Z,11.74
2018-09-23T01:37:42.954Z,11.77
2018-09-23T01:40:11.485Z,11.72
2018-09-23T01:42:40.008Z,11.73
2018-09-23T01:45:08.537Z,11.79
2018-09-23T01:47:39.044Z,11.82
2018-09-23T01:50:07.572Z,11.78
2018-09-23T01:52:36.992Z,11.88
2018-09-23T01:55:08.640Z,11.80
2018-09-23T01:57:37.160Z,11.79
2018-09-23T02:00:06.705Z,11.69
2018-09-23T02:02:35.235Z,11.62
2018-09-23T02:05:03.775Z,11.61
2018-09-23T02:07:32.323Z,11.64
2018-09-23T02:10:00.856Z,11.63
2018-09-23T02:14:08.556Z,11.65
2018-09-23T02:16:37.096Z,11.66
2018-09-23T02:19:05.637Z,11.65
2018-09-23T02:21:34.185Z,11.66
2018-09-23T02:24:02.736Z,11.66
2018-09-23T02:26:31.255Z,11.70
2018-09-23T02:28:59.787Z,11.73
2018-09-23T02:31:28.395Z,11.82
2018-09-23T02:33:56.980Z,11.79
2018-09-23T02:36:25.521Z,11.75
2018-09-23T02:38:54.991Z,11.81
2018-09-23T02:41:23.527Z,11.81
2018-09-23T02:43:52.985Z,11.85
2018-09-23T02:46:21.681Z,11.92
2018-09-23T02:48:50.184Z,11.86
2018-09-23T02:51:18.845Z,11.84
2018-09-23T02:53:47.380Z,11.85
2018-09-23T02:56:16.856Z,11.86
2018-09-23T02:58:45.384Z,11.90
2018-09-23T03:01:13.951Z,11.95
2018-09-23T03:03:43.433Z,12.00
2018-09-23T03:06:11.959Z,11.99
2018-09-23T03:08:40.514Z,12.06
2018-09-23T03:11:09.027Z,12.08
2018-09-23T03:13:37.565Z,12.11
2018-09-23T03:16:06.114Z,12.17
2018-09-23T03:18:34.652Z,12.20
2018-09-23T03:21:03.184Z,12.13
2018-09-23T03:23:31.729Z,12.06
2018-09-23T03:26:00.272Z,12.19
2018-09-23T03:28:29.711Z,12.08
2018-09-23T03:30:58.240Z,12.03
2018-09-23T03:33:26.768Z,12.00
2018-09-23T03:35:55.299Z,12.05
2018-09-23T03:38:23.835Z,11.99
2018-09-23T03:40:52.395Z,11.95
2018-09-23T03:43:20.927Z,11.93
2018-09-23T03:45:49.575Z,11.98
2018-09-23T03:48:18.134Z,12.01
2018-09-23T03:50:46.633Z,11.96
2018-09-23T03:53:15.198Z,12.01
2018-09-23T03:55:43.699Z,11.97
2018-09-23T03:58:12.240Z,12.01
2018-09-23T04:00:41.784Z,11.97
2018-09-23T04:03:11.289Z,11.90
2018-09-23T04:05:39.924Z,11.92
2018-09-23T04:08:08.472Z,12.00
2018-09-23T04:10:37.001Z,11.90
2018-09-23T04:13:05.544Z,11.87
2018-09-23T04:15:34.107Z,11.90
2018-09-23T04:18:02.643Z,12.02
2018-09-23T04:20:32.121Z,11.97
2018-09-23T04:23:00.652Z,11.96
2018-09-23T04:25:29.195Z,12.06
2018-09-23T04:27:57.720Z,12.04
2018-09-23T04:30:26.271Z,11.99
2018-09-23T04:32:54.796Z,11.95
2018-09-23T04:35:23.340Z,11.91
2018-09-23T04:37:51.862Z,12.01
2018-09-23T04:40:20.394Z,12.07
2018-09-23T04:42:49.935Z,12.06
2018-09-23T04:45:18.459Z,12.11
2018-09-23T04:47:47.007Z,12.13
2018-09-23T04:50:15.544Z,12.16
2018-09-23T04:52:44.096Z,12.22
2018-09-23T04:55:12.626Z,12.11
2018-09-23T04:57:41.169Z,12.13
2018-09-23T05:00:09.691Z,12.09
2018-09-23T05:02:38.236Z,12.12
2018-09-23T05:05:08.756Z,12.15
2018-09-23T05:07:37.274Z,12.29
2018-09-23T05:10:05.805Z,12.29
2018-09-23T05:12:34.536Z,12.42
2018-09-23T05:15:04.045Z,12.42
2018-09-23T05:17:32.594Z,12.46
2018-09-23T05:20:01.182Z,12.45
2018-09-23T05:22:29.703Z,12.40
2018-09-23T05:24:58.241Z,12.43
2018-09-23T05:27:26.848Z,12.45
2018-09-23T05:29:55.371Z,12.43
2018-09-23T05:32:23.878Z,12.47
2018-09-23T05:34:52.434Z,12.43
2018-09-23T05:37:20.961Z,12.46
2018-09-23T05:39:51.457Z,12.46
2018-09-23T05:42:19.975Z,12.47
2018-09-23T05:44:48.519Z,12.61
2018-09-23T05:47:17.067Z,12.62
2018-09-23T05:49:45.614Z,12.69
2018-09-23T05:52:16.140Z,12.73
2018-09-23T05:54:49.428Z,12.77
2018-09-23T05:57:29.046Z,12.85
2018-09-23T06:00:06.867Z,12.92
2018-09-23T06:02:43.559Z,12.96
2018-09-23T06:05:23.166Z,12.95
2018-09-23T06:07:52.348Z,13.00
2018-09-23T06:10:20.943Z,13.10
2018-09-23T06:12:59.080Z,13.12
2018-09-23T06:15:27.616Z,13.16
2018-09-23T06:17:59.358Z,13.21
2018-09-23T06:20:27.885Z,13.32
2018-09-23T06:22:56.408Z,13.38
2018-09-23T06:25:24.942Z,13.46
2018-09-23T06:27:53.479Z,13.60
2018-09-23T06:30:22.019Z,13.76
2018-09-23T06:32:50.563Z,13.90
2018-09-23T06:35:19.097Z,14.00
2018-09-23T06:37:48.839Z,14.13
2018-09-23T06:40:17.355Z,14.20
2018-09-23T06:42:58.878Z,14.32
2018-09-23T06:45:36.014Z,14.49
2018-09-23T06:48:05.512Z,14.61
2018-09-23T06:50:34.040Z,14.69
2018-09-23T06:53:02.580Z,14.81
2018-09-23T06:55:31.110Z,14.83
2018-09-23T06:58:02.743Z,14.90
2018-09-23T07:00:31.250Z,14.95
2018-09-23T07:03:01.791Z,15.03
2018-09-23T07:05:37.997Z,15.11
2018-09-23T07:08:06.550Z,15.26
2018-09-23T07:10:38.343Z,15.34
2018-09-23T07:13:08.883Z,15.55
2018-09-23T07:15:37.413Z,15.69
2018-09-23T07:18:05.997Z,15.84
2018-09-23T07:20:34.605Z,15.93
2018-09-23T07:23:03.154Z,16.08
2018-09-23T07:25:31.854Z,16.34
2018-09-23T07:28:01.340Z,16.48
2018-09-23T07:30:29.912Z,16.54
2018-09-23T07:32:58.429Z,16.72
2018-09-23T07:35:34.979Z,16.88
2018-09-23T07:38:04.483Z,16.95
2018-09-23T07:40:33.028Z,17.04
2018-09-23T07:43:13.351Z,17.20
2018-09-23T07:45:42.858Z,17.44
2018-09-23T07:48:11.559Z,17.64
2018-09-23T07:50:39.986Z,17.80
2018-09-23T07:53:08.500Z,17.92
2018-09-23T07:55:37.031Z,17.85
2018-09-23T07:58:05.572Z,17.93
2018-09-23T08:00:34.086Z,17.92
2018-09-23T08:03:02.618Z,17.72
2018-09-23T08:05:31.247Z,17.58
2018-09-23T08:07:59.796Z,17.64
2018-09-23T08:10:30.257Z,18.07
2018-09-23T08:12:58.826Z,18.32
2018-09-23T08:15:28.246Z,18.42
2018-09-23T08:17:56.775Z,18.52
2018-09-23T08:20:25.591Z,18.79
2018-09-23T08:22:54.005Z,19.17
2018-09-23T08:25:25.907Z,19.25
2018-09-23T08:27:54.423Z,19.10
2018-09-23T08:30:22.955Z,19.22
2018-09-23T08:32:51.629Z,19.23
2018-09-23T08:35:20.136Z,19.23
2018-09-23T08:37:48.673Z,19.14
2018-09-23T08:40:17.305Z,19.47
2018-09-23T08:42:45.800Z,19.87
2018-09-23T08:45:14.317Z,20.23
2018-09-23T08:47:42.892Z,20.18
2018-09-23T08:50:11.507Z,20.65
2018-09-23T08:52:40.033Z,20.00
2018-09-23T08:55:09.554Z,19.83
2018-09-23T08:57:38.108Z,19.75
2018-09-23T09:00:06.585Z,19.46
2018-09-23T09:02:35.121Z,19.21
2018-09-23T09:05:03.631Z,19.39
2018-09-23T09:07:32.185Z,21.04
2018-09-23T09:10:00.724Z,20.98
2018-09-23T09:12:30.207Z,20.54
2018-09-23T09:14:58.741Z,20.41
2018-09-23T09:17:27.504Z,21.19
2018-09-23T09:19:56.044Z,22.25
2018-09-23T09:22:25.549Z,23.04
2018-09-23T09:24:56.081Z,22.99
2018-09-23T09:27:24.616Z,23.44
2018-09-23T09:29:53.152Z,23.48
2018-09-23T09:32:21.688Z,24.17
2018-09-23T09:34:50.237Z,22.94
2018-09-23T09:37:19.733Z,22.16
2018-09-23T09:39:49.248Z,21.81
2018-09-23T09:42:17.772Z,22.11
2018-09-23T09:44:46.320Z,21.96
2018-09-23T09:47:14.872Z,22.20
2018-09-23T09:49:43.394Z,22.97
2018-09-23T09:52:11.927Z,23.64
2018-09-23T09:54:40.459Z,23.36
2018-09-23T09:57:08.989Z,23.57
2018-09-23T09:59:37.514Z,24.55
2018-09-23T10:02:06.054Z,24.74
2018-09-23T10:04:34.591Z,24.91
2018-09-23T10:07:03.113Z,25.29
2018-09-23T10:09:31.680Z,23.93
2018-09-23T10:12:02.228Z,23.80
2018-09-23T10:14:30.748Z,24.25
2018-09-23T10:16:59.345Z,25.28
2018-09-23T10:19:27.843Z,25.00
2018-09-23T10:21:56.381Z,25.18
2018-09-23T10:24:25.145Z,24.62
2018-09-23T10:26:53.705Z,24.78
2018-09-23T10:29:22.229Z,23.90
2018-09-23T10:31:50.975Z,23.50
2018-09-23T10:34:19.432Z,23.59
2018-09-23T10:36:48.939Z,23.27
2018-09-23T10:39:17.490Z,23.61
2018-09-23T10:41:49.381Z,23.90
2018-09-23T10:44:17.915Z,24.20
2018-09-23T10:46:46.449Z,23.81
2018-09-23T10:49:15.957Z,23.80
2018-09-23T10:51:46.475Z,23.55
2018-09-23T10:54:15.039Z,24.04
2018-09-23T10:56:43.643Z,23.86
2018-09-23T10:59:14.099Z,23.52
2018-09-23T11:01:42.744Z,23.54
2018-09-23T11:04:12.216Z,23.18
2018-09-23T11:06:40.704Z,23.10
2018-09-23T11:09:09.491Z,23.23
2018-09-23T11:11:37.999Z,23.76
2018-09-23T11:14:08.236Z,24.36
2018-09-23T11:16:37.794Z,24.88
2018-09-23T11:19:06.324Z,25.96
2018-09-23T11:21:34.888Z,26.54
2018-09-23T11:24:04.383Z,26.63
2018-09-23T11:26:32.911Z,27.12
2018-09-23T11:29:01.453Z,27.16
2018-09-23T11:31:29.996Z,26.91
2018-09-23T11:33:58.532Z,26.97
2018-09-23T11:36:27.141Z,26.00
2018-09-23T11:38:56.628Z,26.21
2018-09-23T11:41:26.143Z,26.04
2018-09-23T11:43:54.686Z,24.79
2018-09-23T11:46:23.218Z,24.41
2018-09-23T11:48:52.647Z,24.17
2018-09-23T11:51:21.468Z,24.74
2018-09-23T11:53:49.997Z,24.87
2018-09-23T11:56:18.509Z,25.77
2018-09-23T11:58:47.126Z,26.49
2018-09-23T12:01:15.646Z,26.62
2018-09-23T12:03:45.165Z,26.83
2018-09-23T12:06:13.842Z,26.57
2018-09-23T12:08:42.390Z,26.67
2018-09-23T12:11:10.936Z,26.72
2018-09-23T12:13:40.754Z,26.82
2018-09-23T12:16:09.316Z,27.31
2018-09-23T12:18:37.857Z,27.49
2018-09-23T12:21:06.384Z,27.10
2018-09-23T12:23:34.917Z,26.80
2018-09-23T12:26:03.456Z,26.62
2018-09-23T12:28:32.992Z,27.06
2018-09-23T12:31:01.526Z,27.32
2018-09-23T12:33:31.201Z,27.80
2018-09-23T12:35:59.755Z,27.67
2018-09-23T12:38:28.352Z,26.86
2018-09-23T12:40:56.885Z,27.28
2018-09-23T12:43:25.414Z,27.60
2018-09-23T12:45:55.002Z,27.85
2018-09-23T12:48:23.515Z,27.57
2018-09-23T12:50:52.036Z,27.78
2018-09-23T12:53:20.690Z,28.28
2018-09-23T12:55:50.282Z,28.00
2018-09-23T12:58:18.839Z,28.94
2018-09-23T13:00:47.364Z,27.88
2018-09-23T13:03:16.927Z,27.36
2018-09-23T13:05:45.469Z,27.30
2018-09-23T13:08:14.893Z,27.17
2018-09-23T13:10:43.420Z,27.16
2018-09-23T13:13:12.897Z,27.57
2018-09-23T13:15:41.415Z,27.99
2018-09-23T13:18:10.033Z,28.08
2018-09-23T13:20:38.821Z,28.12
2018-09-23T13:23:07.411Z,28.14
2018-09-23T13:25:35.935Z,28.08
2018-09-23T13:28:04.475Z,27.04
2018-09-23T13:30:33.017Z,25.93
2018-09-23T13:33:06.750Z,26.32
2018-09-23T13:35:35.264Z,26.55
2018-09-23T13:38:04.842Z,26.03
2018-09-23T13:40:33.436Z,25.07
2018-09-23T13:43:04.012Z,24.70
2018-09-23T13:45:32.541Z,24.78
2018-09-23T13:48:02.062Z,24.42
2018-09-23T13:50:30.637Z,24.54
2018-09-23T13:53:00.129Z,24.72
2018-09-23T13:55:33.033Z,25.09
2018-09-23T13:58:02.520Z,25.35
2018-09-23T14:00:31.108Z,25.17
2018-09-23T14:02:59.728Z,24.91
2018-09-23T14:05:29.231Z,24.79
2018-09-23T14:07:57.759Z,24.75
2018-09-23T14:10:26.290Z,24.72
2018-09-23T14:12:54.812Z,24.66
2018-09-23T14:15:23.411Z,24.74
2018-09-23T14:17:52.047Z,24.81
2018-09-23T14:20:21.561Z,24.84
2018-09-23T14:22:50.090Z,24.91
2018-09-23T14:25:18.633Z,24.94
2018-09-23T14:27:47.174Z,24.99
2018-09-23T14:30:15.715Z,24.97
2018-09-23T14:32:44.254Z,24.90
2018-09-23T14:35:12.797Z,24.91
2018-09-23T14:37:41.324Z,25.00
2018-09-23T14:40:09.860Z,24.95
2018-09-23T14:42:38.389Z,25.03
2018-09-23T14:45:06.954Z,25.03
2018-09-23T14:47:35.500Z,25.18
2018-09-23T14:50:04.033Z,25.49
2018-09-23T14:52:32.568Z,25.54
2018-09-23T14:55:01.102Z,27.88
2018-09-23T14:57:29.620Z,28.89
2018-09-23T15:00:03.066Z,27.87
2018-09-23T15:02:27.832Z,27.44
2018-09-23T15:04:56.369Z,27.06
2018-09-23T15:07:24.932Z,26.70
2018-09-23T15:09:53.657Z,26.19
2018-09-23T15:12:22.360Z,25.75
2018-09-23T15:14:51.790Z,25.59
2018-09-23T15:17:21.771Z,26.32
2018-09-23T15:19:50.436Z,26.72
2018-09-23T15:22:20.865Z,26.63
2018-09-23T15:24:49.414Z,26.61
2018-09-23T15:27:17.935Z,26.66
2018-09-23T15:29:46.469Z,26.47
2018-09-23T15:32:15.012Z,26.31
2018-09-23T15:34:43.559Z,26.21
2018-09-23T15:37:12.344Z,26.19
2018-09-23T15:39:41.829Z,25.99
2018-09-23T15:42:10.389Z,25.96
2018-09-23T15:44:39.093Z,25.88
2018-09-23T15:47:15.269Z,25.79
2018-09-23T15:49:44.035Z,25.73
2018-09-23T15:52:12.652Z,25.62
2018-09-23T15:54:41.132Z,25.47
2018-09-23T15:57:09.664Z,25.33
2018-09-23T15:59:38.443Z,25.28
2018-09-23T16:02:07.111Z,25.13
2018-09-23T16:04:36.592Z,25.02
2018-09-23T16:07:05.136Z,24.94
2018-09-23T16:09:33.703Z,24.82
2018-09-23T16:12:03.261Z,24.69
2018-09-23T16:14:33.684Z,24.56
2018-09-23T16:17:02.220Z,24.49
2018-09-23T16:19:35.505Z,24.51
2018-09-23T16:22:04.051Z,24.46
2018-09-23T16:24:32.614Z,24.29
2018-09-23T16:27:03.081Z,24.20
2018-09-23T16:29:31.609Z,24.11
2018-09-23T16:32:00.151Z,24.20
2018-09-23T16:34:28.674Z,24.09
2018-09-23T16:36:57.201Z,23.95
2018-09-23T16:39:25.727Z,23.88
2018-09-23T16:41:54.248Z,23.94
2018-09-23T16:44:22.836Z,23.88
2018-09-23T16:46:52.316Z,23.85
2018-09-23T16:49:20.832Z,23.76
2018-09-23T16:51:49.535Z,23.81
2018-09-23T16:54:23.642Z,23.78
2018-09-23T16:56:52.171Z,23.69
2018-09-23T16:59:21.680Z,23.80
2018-09-23T17:01:54.275Z,23.72
2018-09-23T17:04:22.797Z,23.67
2018-09-23T17:06:51.350Z,23.66
2018-09-23T17:09:19.880Z,23.74
2018-09-23T17:11:48.460Z,23.50
2018-09-23T17:14:17.022Z,23.57
2018-09-23T17:16:45.550Z,23.49
2018-09-23T17:19:14.099Z,23.48
2018-09-23T17:21:43.599Z,23.44
2018-09-23T17:24:12.116Z,23.55
2018-09-23T17:26:40.722Z,23.54
2018-09-23T17:29:09.602Z,23.40
2018-09-23T17:31:41.054Z,23.39
2018-09-23T17:34:09.767Z,23.56
2018-09-23T17:36:38.809Z,23.48
2018-09-23T17:39:07.667Z,23.44
2018-09-23T17:41:36.267Z,23.43
2018-09-23T17:44:04.875Z,23.41
2018-09-23T17:46:35.408Z,23.31
2018-09-23T17:49:04.225Z,23.36
2018-09-23T17:51:32.820Z,23.42
2018-09-23T17:54:01.343Z,23.44
2018-09-23T17:56:29.875Z,23.51
2018-09-23T17:58:58.416Z,23.46
2018-09-23T18:01:26.945Z,23.52
2018-09-23T18:03:55.606Z,23.55
2018-09-23T18:06:24.154Z,23.37
2018-09-23T18:08:52.679Z,23.46
2018-09-23T18:11:21.291Z,23.51
2018-09-23T18:13:50.878Z,23.54
2018-09-23T18:16:19.462Z,23.53
2018-09-23T18:18:49.060Z,23.65
2018-09-23T18:21:17.620Z,23.52
2018-09-23T18:23:47.653Z,23.32
2018-09-23T18:26:17.273Z,22.92
2018-09-23T18:28:46.732Z,22.64
2018-09-23T18:31:15.277Z,22.27
2018-09-23T18:33:43.809Z,22.04
2018-09-23T18:36:13.483Z,21.83
2018-09-23T18:38:42.081Z,22.26
2018-09-23T18:41:10.649Z,22.31
2018-09-23T18:43:39.266Z,22.32
2018-09-23T18:46:07.807Z,22.44
2018-09-23T18:48:36.374Z,22.53
2018-09-23T18:51:07.047Z,22.65
2018-09-23T18:53:36.645Z,22.55
2018-09-23T18:56:05.239Z,22.15
2018-09-23T18:58:34.922Z,21.82
2018-09-23T19:01:03.240Z,18.74
2018-09-23T19:03:32.173Z,16.84
2018-09-23T19:06:01.677Z,15.89
2018-09-23T19:08:31.183Z,15.45
2018-09-23T19:11:00.703Z,15.12
2018-09-23T19:13:31.231Z,14.93
2018-09-23T19:15:59.743Z,14.77
2018-09-23T19:18:29.336Z,14.60
2018-09-23T19:20:58.879Z,14.42
2018-09-23T19:23:29.396Z,14.27
2018-09-23T19:25:57.921Z,14.14
2018-09-23T19:28:26.449Z,14.12
2018-09-23T19:30:54.964Z,14.12
2018-09-23T19:33:23.483Z,14.15
2018-09-23T19:35:52.037Z,14.12
2018-09-23T19:38:20.607Z,14.03
2018-09-23T19:40:49.137Z,14.01
2018-09-23T19:43:18.616Z,14.02
2018-09-23T19:45:48.092Z,13.99
2018-09-23T19:48:17.636Z,13.96
2018-09-23T19:50:46.224Z,13.93
2018-09-23T19:53:14.751Z,14.01
2018-09-23T19:55:43.557Z,14.05
2018-09-23T19:58:12.093Z,14.02
2018-09-23T20:00:41.627Z,14.09
2018-09-23T20:03:10.459Z,14.12
2018-09-23T20:05:38.988Z,14.07
2018-09-23T20:08:07.536Z,14.00
2018-09-23T20:10:36.980Z,13.96
2018-09-23T20:13:05.860Z,13.96
2018-09-23T20:15:34.423Z,13.92
2018-09-23T20:18:02.941Z,14.00
2018-09-23T20:20:31.464Z,14.04
2018-09-23T20:23:00.041Z,14.16
2018-09-23T20:25:30.441Z,14.08
2018-09-23T20:28:00.913Z,14.08
2018-09-23T20:30:31.090Z,14.00
2018-09-23T20:33:02.424Z,13.92
2018-09-23T20:35:36.498Z,13.98
2018-09-23T20:38:07.338Z,13.68
2018-09-23T20:40:37.834Z,13.60
2018-09-23T20:43:09.768Z,13.50
2018-09-23T20:45:42.238Z,13.43
2018-09-23T20:48:14.264Z,13.31
2018-09-23T20:50:47.736Z,13.37
2018-09-23T20:53:18.022Z,13.21
2018-09-23T20:55:50.050Z,13.14
2018-09-23T20:58:20.929Z,13.15
2018-09-23T21:00:49.547Z,13.02
2018-09-23T21:03:18.095Z,12.99
2018-09-23T21:05:46.695Z,12.95
2018-09-23T21:08:15.225Z,12.93
2018-09-23T21:10:43.765Z,12.88
2018-09-23T21:13:14.346Z,12.80
2018-09-23T21:15:47.381Z,12.84
2018-09-23T21:18:16.821Z,12.84
2018-09-23T21:20:45.341Z,12.74
2018-09-23T21:23:14.856Z,12.53
2018-09-23T21:25:43.436Z,12.46
2018-09-23T21:28:12.261Z,12.41
2018-09-23T21:30:40.822Z,12.21
2018-09-23T21:33:09.336Z,12.13
2018-09-23T21:35:38.284Z,12.09
2018-09-23T21:38:08.922Z,12.08
2018-09-23T21:40:39.447Z,12.03
2018-09-23T21:43:07.984Z,12.01
2018-09-23T21:45:36.519Z,11.94
2018-09-23T21:48:05.055Z,11.87
2018-09-23T21:50:33.596Z,11.86
2018-09-23T21:53:02.143Z,11.79
2018-09-23T21:55:30.702Z,11.82
2018-09-23T21:57:59.242Z,11.80
2018-09-23T22:00:27.903Z,11.78
2018-09-23T22:02:56.423Z,11.71
2018-09-23T22:05:25.098Z,11.77
2018-09-23T22:07:57.489Z,11.68
2018-09-23T22:10:26.019Z,11.74
2018-09-23T22:12:54.578Z,11.74
2018-09-23T22:15:23.096Z,11.57
2018-09-23T22:17:51.636Z,11.62
2018-09-23T22:20:20.154Z,11.52
2018-09-23T22:22:48.789Z,11.51
2018-09-23T22:25:17.295Z,11.46
2018-09-23T22:27:45.824Z,11.32
2018-09-23T22:30:14.463Z,11.33
2018-09-23T22:32:42.908Z,11.29
2018-09-23T22:35:11.429Z,11.22
2018-09-23T22:37:39.959Z,11.23
2018-09-23T22:40:08.493Z,11.28
2018-09-23T22:42:37.017Z,11.13
2018-09-23T22:45:08.986Z,11.05
2018-09-23T22:47:38.414Z,11.00
2018-09-23T22:50:06.976Z,11.11
2018-09-23T22:52:35.501Z,11.06
2018-09-23T22:55:04.083Z,10.71
2018-09-23T22:57:32.645Z,10.47
2018-09-23T23:00:01.154Z,10.35
2018-09-23T23:02:31.575Z,10.25
2018-09-23T23:05:00.115Z,10.18
2018-09-23T23:07:28.640Z,10.16
2018-09-23T23:09:57.159Z,10.13
2018-09-23T23:12:25.751Z,10.06
2018-09-23T23:14:54.289Z,9.90
2018-09-23T23:17:22.801Z,9.70
2018-09-23T23:19:51.315Z,9.66
2018-09-23T23:22:19.945Z,9.65
2018-09-23T23:24:49.456Z,9.61
2018-09-23T23:27:18.030Z,9.64
2018-09-23T23:29:46.564Z,9.65
2018-09-23T23:32:15.092Z,9.55
2018-09-23T23:34:43.682Z,9.54
2018-09-23T23:37:12.195Z,9.54
2018-09-23T23:39:40.727Z,9.64
2018-09-23T23:42:09.273Z,9.73
2018-09-23T23:44:37.780Z,9.79
2018-09-23T23:47:08.314Z,9.79
2018-09-23T23:49:37.947Z,9.82
2018-09-23T23:52:08.422Z,9.76
2018-09-23T23:54:37.003Z,9.72
2018-09-23T23:57:05.500Z,9.69
2018-09-23T23:59:34.016Z,9.75
